This is the latest recevied weather packets stored in our database for station/object EA1PYE-10. If no packets are shown the sender has not sent any weather packets the latest 10 day(s).
| Time | Temp. | Humidity | Pressure | Rain* | Wind** | Luminosity | Snow |
|---|---|---|---|---|---|---|---|
| 1788023290 | 18.33° C | 60% | 1019 hPa | - | - | - | - |
| 1788021490 | 17.78° C | 59% | 1019.1 hPa | - | - | - | - |
| 1788019690 | 17.78° C | 57% | 1018.8 hPa | - | - | - | - |
| 1788017890 | 17.78° C | 56% | 1018.8 hPa | - | - | - | - |
| 1788016090 | 17.78° C | 56% | 1018.8 hPa | - | - | - | - |
| 1788014290 | 17.78° C | 54% | 1018.5 hPa | - | - | - | - |
| 1788012490 | 18.33° C | 53% | 1018.4 hPa | - | - | - | - |
| 1788010690 | 17.78° C | 54% | 1018.4 hPa | - | - | - | - |
| 1788008890 | 17.78° C | 55% | 1018.2 hPa | - | - | - | - |
| 1788007090 | 17.22° C | 53% | 1018.1 hPa | - | - | - | - |
| 1788005290 | 17.78° C | 52% | 1018 hPa | - | - | - | - |
| 1788003489 | 16.67° C | 52% | 1018.3 hPa | - | - | - | - |
| 1788001689 | 16.67° C | 52% | 1018.4 hPa | - | - | - | - |
| 1787999889 | 16.67° C | 53% | 1018.6 hPa | - | - | - | - |
| 1787998089 | 16.67° C | 54% | 1018.8 hPa | - | - | - | - |
| 1787996289 | 16.67° C | 55% | 1018.8 hPa | - | - | - | - |
| 1787994489 | 16.67° C | 57% | 1018.7 hPa | - | - | - | - |
| 1787992689 | 16.11° C | 60% | 1018.5 hPa | - | - | - | - |
| 1787990889 | 16.11° C | 57% | 1018.5 hPa | - | - | - | - |
| 1787989089 | 16.67° C | 53% | 1018.5 hPa | - | - | - | - |
| 1787987289 | 17.78° C | 50% | 1018.4 hPa | - | - | - | - |
| 1787985489 | 17.78° C | 49% | 1018.5 hPa | - | - | - | - |
| 1787983688 | 15.56° C | 54% | 1018.5 hPa | - | - | - | - |
| 1787981888 | 15.56° C | 54% | 1018.6 hPa | - | - | - | - |
| 1787980088 | 16.11° C | 54% | 1018.6 hPa | - | - | - | - |
* Rain since midnight (hover to see other rain measurements)
** Current wind speed in m/s (hover to see current wind gust speed)